createdAt,value
2022-09-18T00:01:00.944Z,76389.94
2022-09-18T00:03:30.575Z,76393.91
2022-09-18T00:05:57.010Z,76387.94
2022-09-18T00:08:23.637Z,76381.97
2022-09-18T00:10:50.195Z,76368.06
2022-09-18T00:13:16.775Z,76376.03
2022-09-18T00:15:43.255Z,76368.06
2022-09-18T00:18:09.779Z,76360.13
2022-09-18T00:20:37.409Z,76348.19
2022-09-18T00:23:03.888Z,76342.25
2022-09-18T00:25:32.311Z,76340.25
2022-09-18T00:27:59.251Z,76346.22
2022-09-18T00:30:25.728Z,76334.28
2022-09-18T00:32:52.195Z,76344.22
2022-09-18T00:35:19.102Z,76352.19
2022-09-18T00:37:45.705Z,76346.22
2022-09-18T00:40:12.299Z,76350.19
2022-09-18T00:42:38.852Z,76356.16
2022-09-18T00:45:05.769Z,76346.22
2022-09-18T00:47:52.703Z,76358.13
2022-09-18T00:50:27.123Z,76381.97
2022-09-18T00:52:58.415Z,76372.03
2022-09-18T00:55:32.109Z,76381.97
2022-09-18T00:58:01.600Z,76387.94
2022-09-18T01:00:29.672Z,76381.97
2022-09-18T01:02:56.644Z,76381.97
2022-09-18T01:05:39.493Z,76378.00
2022-09-18T01:08:14.497Z,76395.91
2022-09-18T01:10:57.828Z,76380.00
2022-09-18T01:13:50.781Z,76387.94
2022-09-18T01:16:54.626Z,76389.94
2022-09-18T01:19:33.231Z,76387.94
2022-09-18T01:22:08.998Z,76407.81
2022-09-18T01:24:41.630Z,76395.91
2022-09-18T01:27:16.964Z,76391.91
2022-09-18T01:29:55.251Z,76401.84
2022-09-18T01:32:33.275Z,76407.81
2022-09-18T01:35:36.887Z,76425.69
2022-09-18T01:38:09.568Z,76419.72
2022-09-18T01:41:08.752Z,76421.72
2022-09-18T01:43:38.319Z,76433.66
2022-09-18T01:46:10.135Z,76427.69
2022-09-18T01:48:46.375Z,76423.72
2022-09-18T01:51:20.614Z,76425.69
2022-09-18T01:54:16.511Z,76423.72
2022-09-18T01:56:48.735Z,76439.59
2022-09-18T01:59:23.381Z,76437.63
2022-09-18T02:01:53.333Z,76429.66
2022-09-18T02:04:26.433Z,76437.63
2022-09-18T02:07:14.316Z,76441.59
2022-09-18T02:09:42.365Z,76455.50
2022-09-18T02:12:11.987Z,76443.59
2022-09-18T02:14:43.687Z,76449.53
2022-09-18T02:17:20.587Z,76461.47
2022-09-18T02:20:00.429Z,76449.53
2022-09-18T02:22:30.525Z,76445.56
2022-09-18T02:25:01.708Z,76453.50
2022-09-18T02:27:31.165Z,76461.47
2022-09-18T02:30:00.496Z,76451.53
2022-09-18T02:32:27.045Z,76461.47
2022-09-18T02:34:53.651Z,76469.41
2022-09-18T02:37:20.182Z,76465.44
2022-09-18T02:40:17.483Z,76465.44
2022-09-18T02:43:09.164Z,76473.38
2022-09-18T02:46:02.111Z,76471.41
2022-09-18T02:48:44.803Z,76469.41
2022-09-18T02:51:36.557Z,76459.47
2022-09-18T02:54:30.179Z,76471.41
2022-09-18T02:57:01.219Z,76463.44
2022-09-18T02:59:39.903Z,76465.44
2022-09-18T03:02:07.310Z,76459.47
2022-09-18T03:04:34.589Z,76469.41
2022-09-18T03:07:01.060Z,76475.38
2022-09-18T03:09:27.637Z,76479.34
2022-09-18T03:11:54.130Z,76469.41
2022-09-18T03:14:20.644Z,76481.34
2022-09-18T03:16:47.109Z,76499.22
2022-09-18T03:19:14.836Z,76491.28
2022-09-18T03:21:41.475Z,76483.31
2022-09-18T03:24:07.930Z,76501.22
2022-09-18T03:26:34.526Z,76495.25
2022-09-18T03:29:01.099Z,76491.28
2022-09-18T03:31:27.696Z,76499.22
2022-09-18T03:33:54.259Z,76495.25
2022-09-18T03:36:20.730Z,76491.28
2022-09-18T03:38:47.168Z,76487.28
2022-09-18T03:41:13.667Z,76487.28
2022-09-18T03:43:40.324Z,76499.22
2022-09-18T03:46:06.842Z,76505.19
2022-09-18T03:48:34.486Z,76507.16
2022-09-18T03:51:01.232Z,76515.13
2022-09-18T03:53:27.797Z,76517.09
2022-09-18T03:55:54.455Z,76535.00
2022-09-18T03:58:20.967Z,76531.00
2022-09-18T04:00:47.588Z,76538.97
2022-09-18T04:03:14.175Z,76542.94
2022-09-18T04:05:40.768Z,76546.91
2022-09-18T04:08:07.292Z,76542.94
2022-09-18T04:10:33.763Z,76554.84
2022-09-18T04:13:00.403Z,76562.81
2022-09-18T04:15:26.945Z,76546.91
2022-09-18T04:17:53.588Z,76554.84
2022-09-18T04:20:20.028Z,76558.84
2022-09-18T04:22:46.490Z,76548.91
2022-09-18T04:25:12.988Z,76542.94
2022-09-18T04:27:39.483Z,76556.84
2022-09-18T04:30:06.442Z,76558.84
2022-09-18T04:32:32.955Z,76564.78
2022-09-18T04:34:59.528Z,76562.81
2022-09-18T04:37:26.084Z,76570.75
2022-09-18T04:39:57.259Z,76570.75
2022-09-18T04:42:23.763Z,76574.72
2022-09-18T04:44:50.273Z,76570.75
2022-09-18T04:47:16.791Z,76576.72
2022-09-18T04:49:43.263Z,76588.63
2022-09-18T04:52:09.763Z,76584.66
2022-09-18T04:54:36.182Z,76588.63
2022-09-18T04:57:02.670Z,76596.59
2022-09-18T04:59:29.176Z,76598.56
2022-09-18T05:01:55.778Z,76592.63
2022-09-18T05:04:22.296Z,76602.56
2022-09-18T05:06:48.813Z,76602.56
2022-09-18T05:09:15.286Z,76612.50
2022-09-18T05:11:41.835Z,76614.47
2022-09-18T05:14:08.749Z,76622.44
2022-09-18T05:16:35.424Z,76620.44
2022-09-18T05:19:02.068Z,76614.47
2022-09-18T05:21:28.611Z,76612.50
2022-09-18T05:23:55.162Z,76624.41
2022-09-18T05:26:21.757Z,76626.41
2022-09-18T05:28:51.275Z,76616.47
2022-09-18T05:31:17.853Z,76614.47
2022-09-18T05:33:44.668Z,76620.44
2022-09-18T05:36:11.175Z,76620.44
2022-09-18T05:38:37.626Z,76642.28
2022-09-18T05:41:04.314Z,76638.31
2022-09-18T05:43:30.907Z,76642.28
2022-09-18T05:45:57.874Z,76650.25
2022-09-18T05:48:24.529Z,76646.28
2022-09-18T05:50:52.089Z,76654.22
2022-09-18T05:53:20.557Z,76650.25
2022-09-18T05:55:47.778Z,76644.28
2022-09-18T05:58:18.947Z,76634.34
2022-09-18T06:00:46.885Z,76632.34
2022-09-18T06:03:15.598Z,76626.41
2022-09-18T06:05:42.911Z,76618.44
2022-09-18T06:08:11.920Z,76634.34
2022-09-18T06:10:40.308Z,76628.38
2022-09-18T06:13:13.880Z,76652.22
2022-09-18T06:15:40.339Z,76670.13
2022-09-18T06:18:09.239Z,76662.16
2022-09-18T06:20:35.936Z,76666.16
2022-09-18T06:23:03.278Z,76693.97
2022-09-18T06:25:30.540Z,76711.84
2022-09-18T06:28:00.882Z,76686.00
2022-09-18T06:30:33.084Z,76691.97
2022-09-18T06:33:07.954Z,76678.06
2022-09-18T06:35:35.005Z,76668.13
2022-09-18T06:38:03.270Z,76672.09
2022-09-18T06:40:31.265Z,76666.16
2022-09-18T06:42:58.805Z,76642.28
2022-09-18T06:45:26.368Z,76648.25
2022-09-18T06:47:56.234Z,76634.34
2022-09-18T06:50:23.531Z,76642.28
2022-09-18T06:52:52.460Z,76658.19
2022-09-18T06:55:19.343Z,76646.28
2022-09-18T06:57:56.107Z,76630.38
2022-09-18T07:00:23.233Z,76622.44
2022-09-18T07:03:00.773Z,76624.41
2022-09-18T07:05:30.612Z,76602.56
2022-09-18T07:07:57.070Z,76620.44
2022-09-18T07:10:23.875Z,76622.44
2022-09-18T07:12:55.744Z,76618.44
2022-09-18T07:15:22.592Z,76598.56
2022-09-18T07:17:49.109Z,76592.63
2022-09-18T07:20:15.735Z,76588.63
2022-09-18T07:22:46.558Z,76574.72
2022-09-18T07:25:13.899Z,76606.53
2022-09-18T07:27:40.387Z,76606.53
2022-09-18T07:30:07.364Z,76606.53
2022-09-18T07:32:36.110Z,76584.66
2022-09-18T07:35:02.641Z,76572.75
2022-09-18T07:37:29.523Z,76578.72
2022-09-18T07:39:56.159Z,76562.81
2022-09-18T07:42:22.739Z,76562.81
2022-09-18T07:44:49.262Z,76546.91
2022-09-18T07:47:15.957Z,76544.94
2022-09-18T07:49:42.727Z,76548.91
2022-09-18T07:52:09.440Z,76542.94
2022-09-18T07:54:36.375Z,76527.03
2022-09-18T07:57:02.996Z,76546.91
2022-09-18T07:59:30.052Z,76527.03
2022-09-18T08:01:56.930Z,76519.09
2022-09-18T08:04:23.651Z,76511.16
2022-09-18T08:06:54.230Z,76487.28
2022-09-18T08:09:22.092Z,76489.28
2022-09-18T08:11:52.340Z,76495.25
2022-09-18T08:14:18.803Z,76475.38
2022-09-18T08:16:45.583Z,76491.28
2022-09-18T08:19:12.942Z,76475.38
2022-09-18T08:21:39.647Z,76471.41
2022-09-18T08:24:06.292Z,76483.31
2022-09-18T08:26:35.949Z,76473.38
2022-09-18T08:29:02.421Z,76471.41
2022-09-18T08:31:28.943Z,76471.41
2022-09-18T08:33:55.503Z,76475.38
2022-09-18T08:36:22.068Z,76481.34
2022-09-18T08:38:48.631Z,76489.28
2022-09-18T08:41:36.902Z,76467.44
2022-09-18T08:44:05.711Z,76443.59
2022-09-18T08:46:35.446Z,76405.81
2022-09-18T08:49:22.127Z,76364.09
2022-09-18T08:51:51.489Z,76364.09
2022-09-18T08:54:47.497Z,76348.19
2022-09-18T08:57:36.840Z,76342.25
2022-09-18T09:00:12.880Z,76354.16
2022-09-18T09:02:41.067Z,76397.88
2022-09-18T09:05:14.445Z,76381.97
2022-09-18T09:08:02.295Z,76368.06
2022-09-18T09:11:01.499Z,76332.31
2022-09-18T09:13:27.945Z,76314.41
2022-09-18T09:15:59.475Z,76318.41
2022-09-18T09:18:37.223Z,76320.38
2022-09-18T09:21:56.860Z,76280.66
2022-09-18T09:24:48.966Z,76282.63
2022-09-18T09:27:24.795Z,76318.41
2022-09-18T09:30:00.735Z,76298.53
2022-09-18T09:32:39.439Z,76316.41
2022-09-18T09:35:42.070Z,76304.50
2022-09-18T09:38:42.601Z,76284.63
2022-09-18T09:41:28.263Z,76306.47
2022-09-18T09:44:24.052Z,76336.28
2022-09-18T09:47:15.683Z,76374.03
2022-09-18T09:50:05.131Z,76397.88
2022-09-18T09:52:32.123Z,76360.13
2022-09-18T09:55:13.859Z,76346.22
2022-09-18T09:57:43.373Z,76326.34
2022-09-18T10:00:18.411Z,76284.63
2022-09-18T10:03:06.595Z,76266.72
2022-09-18T10:05:57.097Z,76296.53
2022-09-18T10:08:38.939Z,76326.34
2022-09-18T10:11:08.854Z,76330.31
2022-09-18T10:13:48.488Z,76276.66
2022-09-18T10:16:36.406Z,76228.97
2022-09-18T10:19:04.790Z,76207.13
2022-09-18T10:21:38.547Z,76155.47
2022-09-18T10:24:30.003Z,76131.63
2022-09-18T10:27:01.819Z,76159.44
2022-09-18T10:29:30.836Z,76225.00
2022-09-18T10:32:01.060Z,76322.38
2022-09-18T10:34:35.164Z,76298.53
2022-09-18T10:37:02.031Z,76280.66
2022-09-18T10:39:39.108Z,76228.97
2022-09-18T10:42:07.104Z,76219.03
2022-09-18T10:44:39.915Z,76223.03
2022-09-18T10:47:09.435Z,76262.75
2022-09-18T10:49:41.276Z,76352.19
2022-09-18T10:52:22.690Z,76433.66
2022-09-18T10:55:07.525Z,76513.13
2022-09-18T10:57:36.403Z,76536.97
2022-09-18T11:00:10.773Z,76558.84
2022-09-18T11:02:46.191Z,76554.84
2022-09-18T11:05:21.907Z,76533.00
2022-09-18T11:07:50.934Z,76515.13
2022-09-18T11:10:19.651Z,76489.28
2022-09-18T11:12:55.810Z,76455.50
2022-09-18T11:15:27.432Z,76415.75
2022-09-18T11:17:57.335Z,76372.03
2022-09-18T11:20:44.761Z,76352.19
2022-09-18T11:23:31.817Z,76366.09
2022-09-18T11:26:20.968Z,76376.03
2022-09-18T11:29:17.606Z,76380.00
2022-09-18T11:31:48.023Z,76362.09
2022-09-18T11:34:38.923Z,76334.28
2022-09-18T11:37:12.782Z,76344.22
2022-09-18T11:39:51.900Z,76336.28
2022-09-18T11:42:18.852Z,76324.34
2022-09-18T11:44:45.597Z,76346.22
2022-09-18T11:47:34.008Z,76330.31
2022-09-18T11:50:19.019Z,76320.38
2022-09-18T11:52:52.586Z,76324.34
2022-09-18T11:55:31.127Z,76312.44
2022-09-18T11:58:11.671Z,76332.31
2022-09-18T12:00:52.713Z,76350.19
2022-09-18T12:03:34.780Z,76364.09
2022-09-18T12:06:06.802Z,76344.22
2022-09-18T12:08:34.918Z,76312.44
2022-09-18T12:11:10.794Z,76258.78
2022-09-18T12:13:52.576Z,76213.09
2022-09-18T12:16:41.852Z,76163.41
2022-09-18T12:19:16.503Z,76129.63
2022-09-18T12:24:15.821Z,76157.44
2022-09-18T12:26:56.464Z,76227.00
2022-09-18T12:30:12.276Z,76276.66
2022-09-18T12:33:05.104Z,76298.53
2022-09-18T12:35:37.583Z,76316.41
2022-09-18T12:38:15.544Z,76330.31
2022-09-18T12:41:22.635Z,76306.47
2022-09-18T12:43:55.139Z,76282.63
2022-09-18T12:46:27.743Z,76234.94
2022-09-18T12:49:05.263Z,76193.22
2022-09-18T12:51:50.102Z,76123.66
2022-09-18T12:54:27.003Z,76060.09
2022-09-18T12:56:56.252Z,75970.69
2022-09-18T12:59:38.650Z,75962.75
2022-09-18T13:02:20.505Z,75946.84
2022-09-18T13:04:52.458Z,76058.09
2022-09-18T13:07:39.410Z,76189.25
2022-09-18T13:10:12.092Z,76272.69
2022-09-18T13:12:47.623Z,76316.41
2022-09-18T13:15:28.850Z,76380.00
2022-09-18T13:18:18.395Z,76383.97
2022-09-18T13:20:46.695Z,76401.84
2022-09-18T13:23:38.587Z,76393.91
2022-09-18T13:26:09.591Z,76393.91
2022-09-18T13:28:36.587Z,76376.03
2022-09-18T13:31:15.210Z,76389.94
2022-09-18T13:34:04.451Z,76393.91
2022-09-18T13:36:37.563Z,76385.97
2022-09-18T13:39:14.243Z,76372.03
2022-09-18T13:41:47.328Z,76340.25
2022-09-18T13:44:22.701Z,76334.28
2022-09-18T13:46:52.170Z,76332.31
2022-09-18T13:49:22.477Z,76324.34
2022-09-18T13:51:49.155Z,76340.25
2022-09-18T13:54:18.469Z,76360.13
2022-09-18T13:57:14.722Z,76370.06
2022-09-18T14:00:07.753Z,76389.94
2022-09-18T14:02:39.438Z,76403.84
2022-09-18T14:05:29.811Z,76453.50
2022-09-18T14:08:13.710Z,76483.31
2022-09-18T14:11:14.954Z,76521.09
2022-09-18T14:13:49.886Z,76540.94
2022-09-18T14:16:19.344Z,76564.78
2022-09-18T14:18:48.552Z,76580.69
2022-09-18T14:21:18.030Z,76580.69
2022-09-18T14:23:45.374Z,76572.75
2022-09-18T14:26:37.598Z,76576.72
2022-09-18T14:29:14.805Z,76578.72
2022-09-18T14:31:41.316Z,76568.78
2022-09-18T14:34:34.038Z,76548.91
2022-09-18T14:37:21.983Z,76542.94
2022-09-18T14:39:48.495Z,76521.09
2022-09-18T14:42:24.667Z,76513.13
2022-09-18T14:44:57.733Z,76519.09
2022-09-18T14:47:26.857Z,76527.03
2022-09-18T14:49:53.990Z,76538.97
2022-09-18T14:52:23.095Z,76538.97
2022-09-18T14:54:53.010Z,76521.09
2022-09-18T14:57:52.539Z,76538.97
2022-09-18T15:00:22.171Z,76511.16
2022-09-18T15:02:57.343Z,76519.09
2022-09-18T15:05:26.564Z,76531.00
2022-09-18T15:07:58.703Z,76548.91
2022-09-18T15:10:27.388Z,76540.94
2022-09-18T15:12:56.736Z,76540.94
2022-09-18T15:15:33.181Z,76544.94
2022-09-18T15:18:00.635Z,76552.88
2022-09-18T15:20:28.108Z,76546.91
2022-09-18T15:22:55.158Z,76536.97
2022-09-18T15:25:25.939Z,76540.94
2022-09-18T15:27:54.743Z,76533.00
2022-09-18T15:30:23.967Z,76513.13
2022-09-18T15:33:04.552Z,76475.38
2022-09-18T15:35:37.122Z,76473.38
2022-09-18T15:38:08.199Z,76443.59
2022-09-18T15:40:37.922Z,76447.56
2022-09-18T15:43:06.945Z,76437.63
2022-09-18T15:45:35.740Z,76425.69
2022-09-18T15:48:34.029Z,76443.59
2022-09-18T15:51:24.431Z,76439.59
2022-09-18T15:54:13.164Z,76340.25
2022-09-18T15:56:50.465Z,76266.72
2022-09-18T15:59:33.381Z,76354.16
2022-09-18T16:05:08.371Z,76431.66
2022-09-18T16:07:37.472Z,76457.50
2022-09-18T16:10:04.820Z,76469.41
2022-09-18T16:12:31.362Z,76491.28
2022-09-18T16:15:24.707Z,76509.16
2022-09-18T16:17:51.166Z,76519.09
2022-09-18T16:20:23.916Z,76544.94
2022-09-18T16:22:53.193Z,76552.88
2022-09-18T16:25:29.865Z,76552.88
2022-09-18T16:27:58.086Z,76568.78
2022-09-18T16:30:26.272Z,76584.66
2022-09-18T16:33:15.235Z,76584.66
2022-09-18T16:35:44.403Z,76576.72
2022-09-18T16:38:10.891Z,76576.72
2022-09-18T16:40:37.515Z,76586.66
2022-09-18T16:43:04.083Z,76612.50
2022-09-18T16:45:31.299Z,76624.41
2022-09-18T16:48:00.659Z,76604.53
2022-09-18T16:50:27.772Z,76626.41
2022-09-18T16:52:56.611Z,76636.34
2022-09-18T16:55:25.282Z,76618.44
2022-09-18T16:57:53.146Z,76628.38
2022-09-18T17:00:19.824Z,76632.34
2022-09-18T17:02:46.574Z,76640.31
2022-09-18T17:05:18.329Z,76632.34
2022-09-18T17:07:54.007Z,76632.34
2022-09-18T17:10:24.536Z,76630.38
2022-09-18T17:12:51.283Z,76636.34
2022-09-18T17:15:17.856Z,76640.31
2022-09-18T17:17:49.656Z,76646.28
2022-09-18T17:20:48.099Z,76628.38
2022-09-18T17:23:17.280Z,76660.19
2022-09-18T17:25:57.345Z,76672.09
2022-09-18T17:28:32.769Z,76676.06
2022-09-18T17:31:15.102Z,76680.06
2022-09-18T17:33:47.955Z,76666.16
2022-09-18T17:36:21.032Z,76658.19
2022-09-18T17:41:28.711Z,76678.06
2022-09-18T17:47:16.981Z,76676.06
2022-09-18T17:52:27.734Z,76678.06
2022-09-18T17:55:00.177Z,76678.06
2022-09-18T17:57:26.710Z,76699.94
2022-09-18T17:59:55.392Z,76690.00
2022-09-18T18:02:22.615Z,76668.13
2022-09-18T18:04:52.246Z,76697.94
2022-09-18T18:07:35.563Z,76684.03
2022-09-18T18:10:56.487Z,76691.97
2022-09-18T18:13:25.733Z,76686.00
2022-09-18T18:15:59.370Z,76666.16
2022-09-18T18:18:25.971Z,76662.16
2022-09-18T18:20:55.989Z,76690.00
2022-09-18T18:23:34.390Z,76697.94
2022-09-18T18:26:05.513Z,76701.91
2022-09-18T18:28:54.639Z,76715.81
2022-09-18T18:31:22.542Z,76715.81
2022-09-18T18:33:49.044Z,76709.88
2022-09-18T18:36:18.486Z,76723.78
2022-09-18T18:38:48.211Z,76709.88
2022-09-18T18:41:22.097Z,76705.88
2022-09-18T18:43:56.382Z,76715.81
2022-09-18T18:46:24.866Z,76715.81
2022-09-18T18:49:03.012Z,76705.88
2022-09-18T18:51:38.602Z,76713.84
2022-09-18T18:54:06.663Z,76715.81
2022-09-18T18:56:35.498Z,76715.81
2022-09-18T18:59:03.738Z,76715.81
2022-09-18T19:01:31.275Z,76715.81
2022-09-18T19:04:06.025Z,76709.88
2022-09-18T19:06:34.039Z,76719.81
2022-09-18T19:09:02.498Z,76703.91
2022-09-18T19:11:31.964Z,76697.94
2022-09-18T19:14:06.936Z,76686.00
2022-09-18T19:16:33.485Z,76701.91
2022-09-18T19:19:00.437Z,76699.94
2022-09-18T19:21:28.493Z,76697.94
2022-09-18T19:23:59.246Z,76715.81
2022-09-18T19:26:28.581Z,76721.78
2022-09-18T19:29:00.353Z,76721.78
2022-09-18T19:31:28.900Z,76729.75
2022-09-18T19:33:56.208Z,76711.84
2022-09-18T19:36:25.167Z,76711.84
2022-09-18T19:38:57.692Z,76713.84
2022-09-18T19:42:02.000Z,76717.81
2022-09-18T19:44:34.858Z,76705.88
2022-09-18T19:47:04.656Z,76713.84
2022-09-18T19:49:36.752Z,76727.75
2022-09-18T19:52:04.410Z,76729.75
2022-09-18T19:54:31.348Z,76743.66
2022-09-18T19:56:59.209Z,76739.66
2022-09-18T19:59:25.827Z,76749.59
2022-09-18T20:01:53.649Z,76757.56
2022-09-18T20:04:20.212Z,76773.47
2022-09-18T20:06:46.747Z,76775.44
2022-09-18T20:09:13.214Z,76761.53
2022-09-18T20:11:40.024Z,76757.56
2022-09-18T20:14:06.548Z,76749.59
2022-09-18T20:16:34.252Z,76733.72
2022-09-18T20:19:01.735Z,76757.56
2022-09-18T20:21:29.849Z,76733.72
2022-09-18T20:23:58.183Z,76725.75
2022-09-18T20:26:26.310Z,76705.88
2022-09-18T20:28:56.688Z,76735.69
2022-09-18T20:31:28.690Z,76733.72
2022-09-18T20:33:59.176Z,76737.69
2022-09-18T20:36:34.386Z,76751.59
2022-09-18T20:39:03.561Z,76749.59
2022-09-18T20:41:30.848Z,76753.59
2022-09-18T20:44:05.012Z,76755.56
2022-09-18T20:46:36.880Z,76757.56
2022-09-18T20:49:04.013Z,76761.53
2022-09-18T20:51:34.894Z,76767.50
2022-09-18T20:54:03.315Z,76765.50
2022-09-18T20:56:36.613Z,76771.47
2022-09-18T20:59:07.967Z,76773.47
2022-09-18T21:01:52.281Z,76765.50
2022-09-18T21:04:20.946Z,76771.47
2022-09-18T21:06:56.554Z,76773.47
2022-09-18T21:09:26.481Z,76777.44
2022-09-18T21:11:54.187Z,76773.47
2022-09-18T21:14:21.303Z,76769.47
2022-09-18T21:16:49.044Z,76769.47
2022-09-18T21:19:19.517Z,76777.44
2022-09-18T21:21:48.136Z,76789.34
2022-09-18T21:24:17.532Z,76789.34
2022-09-18T21:26:47.833Z,76781.41
2022-09-18T21:29:23.282Z,76785.38
2022-09-18T21:31:54.235Z,76775.44
2022-09-18T21:34:28.070Z,76781.41
2022-09-18T21:36:58.711Z,76781.41
2022-09-18T21:39:28.212Z,76789.34
2022-09-18T21:41:56.280Z,76795.31
2022-09-18T21:44:27.044Z,76791.34
2022-09-18T21:46:55.422Z,76787.38
2022-09-18T21:49:22.802Z,76785.38
2022-09-18T21:51:49.940Z,76775.44
2022-09-18T21:54:21.299Z,76791.34
2022-09-18T21:56:51.707Z,76777.44
2022-09-18T21:59:19.889Z,76789.34
2022-09-18T22:01:49.119Z,76769.47
2022-09-18T22:04:17.418Z,76795.31
2022-09-18T22:06:46.034Z,76783.38
2022-09-18T22:09:21.461Z,76781.41
2022-09-18T22:11:49.472Z,76775.44
2022-09-18T22:14:18.728Z,76795.31
2022-09-18T22:16:49.487Z,76793.34
2022-09-18T22:19:17.363Z,76803.25
2022-09-18T22:21:46.572Z,76803.25
2022-09-18T22:24:17.790Z,76809.22
2022-09-18T22:26:56.075Z,76801.28
2022-09-18T22:29:25.501Z,76793.34
2022-09-18T22:31:52.150Z,76793.34
2022-09-18T22:34:23.338Z,76793.34
2022-09-18T22:36:50.535Z,76789.34
2022-09-18T22:39:19.195Z,76799.28
2022-09-18T22:41:46.551Z,76791.34
2022-09-18T22:44:15.418Z,76793.34
2022-09-18T22:46:44.207Z,76795.31
2022-09-18T22:49:16.817Z,76807.25
2022-09-18T22:51:45.836Z,76797.31
2022-09-18T22:54:14.019Z,76811.22
2022-09-18T22:56:48.750Z,76807.25
2022-09-18T22:59:17.004Z,76799.28
2022-09-18T23:01:51.288Z,76789.34
2022-09-18T23:04:19.892Z,76805.25
2022-09-18T23:06:48.416Z,76793.34
2022-09-18T23:09:16.537Z,76791.34
2022-09-18T23:11:45.140Z,76779.41
2022-09-18T23:14:18.618Z,76785.38
2022-09-18T23:16:49.333Z,76791.34
2022-09-18T23:19:26.018Z,76791.34
2022-09-18T23:21:53.735Z,76797.31
2022-09-18T23:24:22.107Z,76789.34
2022-09-18T23:26:52.207Z,76795.31
2022-09-18T23:29:21.456Z,76789.34
2022-09-18T23:31:50.576Z,76787.38
2022-09-18T23:34:20.444Z,76767.50
2022-09-18T23:36:49.555Z,76773.47
2022-09-18T23:39:21.486Z,76775.44
2022-09-18T23:41:49.100Z,76775.44
2022-09-18T23:44:18.038Z,76761.53
2022-09-18T23:46:45.912Z,76763.53
2022-09-18T23:49:14.019Z,76763.53
2022-09-18T23:51:43.175Z,76753.59
2022-09-18T23:54:21.785Z,76769.47
2022-09-18T23:56:49.504Z,76773.47
2022-09-18T23:59:20.762Z,76775.44
